Impacts METAR Board
IDs:

KATL - Atlanta/Hartsfield I, GA, US

Updated at: 2300 UTC 02 Oct 2022
Potential Impact None Slight Moderate High
Time 02/11Z 02/12Z 02/13Z 02/14Z 02/15Z 02/16Z 02/17Z 02/18Z 02/19Z 02/20Z 02/21Z 02/22Z 02/23Z
Temp55 55 58 63 66 69 70 74 75 77 76 74 71
Dewpt49 49 49 49 49 50 51 52 53 54 54 53 53
Altim29.96 29.97 29.98 29.99 30.00 30.00 30.00 29.99 29.98 29.97 29.98 30.00 30.01
VIS10 10 10 10 10 10 10 10 10 10 10 10 10
CIG-- -- -- -- -- -- -- -- -- -- -- -- --
CoverCLRFEWFEWFEWFEWFEWFEWFEWFEWFEWFEWFEWFEW
FltCatVFRVFRVFRVFRVFRVFRVFRVFRVFRVFRVFRVFRVFR
WX--------------------------
WDir310330320350330320330330300360300320320
WSpd8 7 9 12 12 10 12 12 9 9 12 14 16
WGst-- -- -- -- -- 20 17 -- 19 20 -- -- 22
Raw hourly METARs
KATL 021052Z 31008KT 10SM CLR 13/09 A2996 RMK AO2 SLP141 T01280094 $
KATL 021152Z 33007KT 10SM FEW060 FEW200 13/09 A2997 RMK AO2 SLP143 T01280094 10156 20128 53007 $
KATL 021252Z 32009KT 10SM FEW060 FEW200 14/09 A2998 RMK AO2 SLP148 T01440094 $
KATL 021352Z 35012KT 10SM FEW200 17/09 A2999 RMK AO2 SLP149 T01720094 $
KATL 021452Z 33012KT 10SM FEW035 FEW200 19/09 A3000 RMK AO2 SLP154 T01890094 51011 $
KATL 021552Z 32010G20KT 300V020 10SM FEW040 FEW200 21/10 A3000 RMK AO2 SLP155 T02060100 $
KATL 021652Z 33012G17KT 10SM FEW044 21/11 A3000 RMK AO2 SLP153 T02110106 $
KATL 021752Z 33012KT 10SM FEW046 23/11 A2999 RMK AO2 SLP150 T02330111 10233 20128 58003 $
KATL 021852Z 30009G19KT 10SM FEW044 24/12 A2998 RMK AO2 SLP145 T02390117 $
KATL 021952Z 36009G20KT 10SM FEW044 25/12 A2997 RMK AO2 SLP143 T02500122 $
KATL 022052Z 30012KT 10SM FEW044 24/12 A2998 RMK AO2 SLP148 T02440122 55003 $
KATL 022152Z 32014KT 10SM FEW044 23/12 A3000 RMK AO2 SLP152 T02330117 $
KATL 022252Z 32016G22KT 10SM FEW042 22/12 A3001 RMK AO2 SLP158 T02170117 $



Page loaded:  23:36 UTC  |   04:36 PM Pacific  |   05:36 PM Mountain  |   06:36 PM Central  |   07:36 PM Eastern

 

ADVISORIES

FORECASTS

FORECASTS

OBSERVATIONS

USER TOOLS

ABOUT US